createdAt,value
2017-10-02T00:00:53.936Z,1010.68
2017-10-02T00:01:53.935Z,1010.80
2017-10-02T00:02:53.932Z,1010.80
2017-10-02T00:03:53.931Z,1010.75
2017-10-02T00:04:53.926Z,1010.68
2017-10-02T00:05:53.925Z,1010.63
2017-10-02T00:06:53.924Z,1010.65
2017-10-02T00:07:53.915Z,1010.66
2017-10-02T00:08:53.914Z,1010.68
2017-10-02T00:09:53.912Z,1010.78
2017-10-02T00:10:53.909Z,1010.71
2017-10-02T00:11:53.906Z,1010.73
2017-10-02T00:12:53.904Z,1010.68
2017-10-02T00:13:53.900Z,1010.70
2017-10-02T00:14:53.904Z,1010.66
2017-10-02T00:15:53.900Z,1010.71
2017-10-02T00:16:53.897Z,1010.59
2017-10-02T00:17:53.901Z,1010.62
2017-10-02T00:18:53.891Z,1010.56
2017-10-02T00:19:53.890Z,1010.57
2017-10-02T00:20:53.885Z,1010.55
2017-10-02T00:21:53.883Z,1010.44
2017-10-02T00:22:53.877Z,1010.47
2017-10-02T00:23:53.875Z,1010.46
2017-10-02T00:24:53.871Z,1010.57
2017-10-02T00:25:53.871Z,1010.45
2017-10-02T00:26:53.868Z,1010.43
2017-10-02T00:27:53.864Z,1010.38
2017-10-02T00:28:53.864Z,1010.39
2017-10-02T00:29:53.860Z,1010.34
2017-10-02T00:30:53.863Z,1010.37
2017-10-02T00:31:53.860Z,1010.35
2017-10-02T00:32:53.857Z,1010.31
2017-10-02T00:33:53.855Z,1010.42
2017-10-02T00:34:53.853Z,1010.35
2017-10-02T00:35:53.850Z,1010.28
2017-10-02T00:36:53.847Z,1010.30
2017-10-02T00:37:53.843Z,1010.36
2017-10-02T00:38:53.836Z,1010.33
2017-10-02T00:39:53.836Z,1010.33
2017-10-02T00:40:53.835Z,1010.36
2017-10-02T00:41:53.830Z,1010.29
2017-10-02T00:42:53.832Z,1010.26
2017-10-02T00:43:53.832Z,1010.24
2017-10-02T00:44:53.826Z,1010.30
2017-10-02T00:45:53.825Z,1010.19
2017-10-02T00:46:53.822Z,1010.23
2017-10-02T00:47:53.815Z,1010.28
2017-10-02T00:48:53.812Z,1010.23
2017-10-02T00:49:53.813Z,1010.30
2017-10-02T00:50:53.807Z,1010.25
2017-10-02T00:51:53.809Z,1010.32
2017-10-02T00:52:53.803Z,1010.34
2017-10-02T00:53:53.802Z,1010.27
2017-10-02T00:54:53.802Z,1010.32
2017-10-02T00:55:53.801Z,1010.34
2017-10-02T00:56:53.797Z,1010.29
2017-10-02T00:57:53.796Z,1010.39
2017-10-02T00:58:53.792Z,1010.29
2017-10-02T00:59:53.790Z,1010.27
2017-10-02T01:00:53.786Z,1010.25
2017-10-02T01:01:53.790Z,1010.23
2017-10-02T01:02:53.779Z,1010.20
2017-10-02T01:03:53.776Z,1010.22
2017-10-02T01:04:53.774Z,1010.22
2017-10-02T01:05:53.773Z,1010.24
2017-10-02T01:06:53.769Z,1010.18
2017-10-02T01:07:53.767Z,1010.27
2017-10-02T01:08:53.765Z,1010.33
2017-10-02T01:09:53.762Z,1010.18
2017-10-02T01:10:53.766Z,1010.25
2017-10-02T01:11:53.763Z,1010.27
2017-10-02T01:12:53.760Z,1010.29
2017-10-02T01:13:53.757Z,1010.30
2017-10-02T01:14:53.754Z,1010.32
2017-10-02T01:15:53.753Z,1010.33
2017-10-02T01:16:53.751Z,1010.34
2017-10-02T01:17:53.748Z,1010.33
2017-10-02T01:18:53.742Z,1010.32
2017-10-02T01:19:53.742Z,1010.33
2017-10-02T01:20:53.738Z,1010.31
2017-10-02T01:21:53.734Z,1010.34
2017-10-02T01:22:53.734Z,1010.30
2017-10-02T01:23:53.730Z,1010.26
2017-10-02T01:24:53.728Z,1010.27
2017-10-02T01:25:53.726Z,1010.29
2017-10-02T01:26:53.728Z,1010.18
2017-10-02T01:27:53.725Z,1010.19
2017-10-02T01:28:53.723Z,1010.10
2017-10-02T01:29:53.722Z,1010.10
2017-10-02T01:30:53.718Z,1010.05
2017-10-02T01:31:53.717Z,1010.01
2017-10-02T01:32:53.714Z,1010.05
2017-10-02T01:33:53.711Z,1010.01
2017-10-02T01:34:53.705Z,1009.99
2017-10-02T01:35:53.706Z,1009.98
2017-10-02T01:36:53.699Z,1009.99
2017-10-02T01:37:53.699Z,1010.01
2017-10-02T01:38:53.697Z,1010.05
2017-10-02T01:39:53.695Z,1010.02
2017-10-02T01:40:53.692Z,1009.98
2017-10-02T01:41:53.690Z,1009.93
2017-10-02T01:42:53.692Z,1009.95
2017-10-02T01:43:53.689Z,1009.94
2017-10-02T01:44:53.686Z,1009.96
2017-10-02T01:45:53.684Z,1009.94
2017-10-02T01:46:53.679Z,1009.86
2017-10-02T01:47:53.677Z,1009.87
2017-10-02T01:48:53.675Z,1009.87
2017-10-02T01:49:53.672Z,1009.87
2017-10-02T01:50:53.675Z,1009.86
2017-10-02T01:51:53.672Z,1009.85
2017-10-02T01:52:53.669Z,1009.76
2017-10-02T01:53:53.667Z,1009.78
2017-10-02T01:54:53.664Z,1009.90
2017-10-02T01:55:53.663Z,1009.74
2017-10-02T01:56:53.659Z,1009.76
2017-10-02T01:57:53.657Z,1009.73
2017-10-02T01:58:53.651Z,1009.79
2017-10-02T01:59:53.649Z,1009.73
2017-10-02T02:00:53.646Z,1009.79
2017-10-02T02:01:53.642Z,1009.77
2017-10-02T02:02:53.641Z,1009.86
2017-10-02T02:03:53.639Z,1009.84
2017-10-02T02:04:53.636Z,1009.82
2017-10-02T02:05:53.633Z,1009.86
2017-10-02T02:06:53.635Z,1009.88
2017-10-02T02:07:53.654Z,1009.91
2017-10-02T02:08:53.629Z,1009.90
2017-10-02T02:09:53.627Z,1009.78
2017-10-02T02:10:53.624Z,1009.82
2017-10-02T02:11:53.622Z,1009.76
2017-10-02T02:12:53.619Z,1009.69
2017-10-02T02:13:53.618Z,1009.67
2017-10-02T02:14:53.610Z,1009.61
2017-10-02T02:15:53.607Z,1009.62
2017-10-02T02:16:53.605Z,1009.61
2017-10-02T02:17:53.603Z,1009.51
2017-10-02T02:18:53.600Z,1009.54
2017-10-02T02:19:53.596Z,1009.49
2017-10-02T02:20:53.592Z,1009.47
2017-10-02T02:21:53.590Z,1009.53
2017-10-02T02:22:53.592Z,1009.49
2017-10-02T02:23:53.590Z,1009.42
2017-10-02T02:24:53.586Z,1009.43
2017-10-02T02:25:53.584Z,1009.42
2017-10-02T02:26:53.581Z,1009.43
2017-10-02T02:27:53.578Z,1009.50
2017-10-02T02:28:53.575Z,1009.46
2017-10-02T02:29:53.571Z,1009.47
2017-10-02T02:30:53.567Z,1009.39
2017-10-02T02:31:53.562Z,1009.42
2017-10-02T02:32:53.559Z,1009.35
2017-10-02T02:33:53.557Z,1009.32
2017-10-02T02:34:53.554Z,1009.27
2017-10-02T02:35:53.553Z,1009.31
2017-10-02T02:36:53.547Z,1009.22
2017-10-02T02:37:53.549Z,1009.22
2017-10-02T02:38:53.545Z,1009.14
2017-10-02T02:39:53.544Z,1009.09
2017-10-02T02:40:53.540Z,1009.10
2017-10-02T02:41:53.542Z,1009.03
2017-10-02T02:42:53.534Z,1009.08
2017-10-02T02:43:53.532Z,1009.09
2017-10-02T02:44:53.527Z,1009.04
2017-10-02T02:45:53.525Z,1009.06
2017-10-02T02:46:53.519Z,1009.10
2017-10-02T02:47:53.517Z,1009.10
2017-10-02T02:48:53.513Z,1009.07
2017-10-02T02:49:53.510Z,1009.04
2017-10-02T02:50:53.512Z,1009.09
2017-10-02T02:51:53.510Z,1009.05
2017-10-02T02:52:53.505Z,1009.12
2017-10-02T02:53:53.504Z,1009.10
2017-10-02T02:54:53.497Z,1009.14
2017-10-02T02:55:53.494Z,1009.10
2017-10-02T02:56:53.490Z,1009.15
2017-10-02T02:57:53.488Z,1009.10
2017-10-02T02:58:53.484Z,1009.13
2017-10-02T02:59:53.490Z,1009.17
2017-10-02T03:00:53.480Z,1009.13
2017-10-02T03:01:53.476Z,1009.04
2017-10-02T03:02:53.478Z,1009.17
2017-10-02T03:03:53.475Z,1009.07
2017-10-02T03:04:53.474Z,1009.09
2017-10-02T03:05:53.468Z,1009.09
2017-10-02T03:06:53.467Z,1009.12
2017-10-02T03:07:53.464Z,1009.12
2017-10-02T03:08:53.462Z,1009.13
2017-10-02T03:09:53.457Z,1009.21
2017-10-02T03:10:53.451Z,1009.21
2017-10-02T03:11:53.449Z,1009.31
2017-10-02T03:12:53.446Z,1009.30
2017-10-02T03:13:53.443Z,1009.48
2017-10-02T03:14:53.440Z,1009.28
2017-10-02T03:15:53.438Z,1009.32
2017-10-02T03:16:53.435Z,1009.30
2017-10-02T03:17:53.431Z,1009.32
2017-10-02T03:18:53.434Z,1009.25
2017-10-02T03:19:53.432Z,1009.12
2017-10-02T03:20:53.433Z,1009.15
2017-10-02T03:21:53.424Z,1009.16
2017-10-02T03:22:53.421Z,1009.05
2017-10-02T03:23:53.419Z,1009.01
2017-10-02T03:24:53.416Z,1008.93
2017-10-02T03:25:53.413Z,1008.88
2017-10-02T03:26:53.407Z,1008.83
2017-10-02T03:27:53.401Z,1008.84
2017-10-02T03:28:53.399Z,1008.77
2017-10-02T03:29:53.395Z,1008.81
2017-10-02T03:30:53.394Z,1008.79
2017-10-02T03:31:53.390Z,1008.81
2017-10-02T03:32:53.385Z,1008.89
2017-10-02T03:33:53.383Z,1008.89
2017-10-02T03:34:53.384Z,1008.81
2017-10-02T03:35:53.381Z,1008.89
2017-10-02T03:36:53.377Z,1008.80
2017-10-02T03:37:53.376Z,1008.85
2017-10-02T03:38:53.371Z,1008.79
2017-10-02T03:39:53.367Z,1008.84
2017-10-02T03:40:53.364Z,1008.90
2017-10-02T03:41:53.361Z,1008.91
2017-10-02T03:42:53.353Z,1008.91
2017-10-02T03:43:53.350Z,1008.92
2017-10-02T03:44:53.346Z,1008.93
2017-10-02T03:45:53.342Z,1008.94
2017-10-02T03:46:53.339Z,1008.95
2017-10-02T03:47:53.337Z,1008.92
2017-10-02T03:48:53.333Z,1008.87
2017-10-02T03:49:53.329Z,1008.90
2017-10-02T03:50:53.335Z,1008.90
2017-10-02T03:51:53.327Z,1008.85
2017-10-02T03:52:53.323Z,1008.84
2017-10-02T03:53:53.320Z,1008.85
2017-10-02T03:54:53.315Z,1008.78
2017-10-02T03:55:53.314Z,1008.77
2017-10-02T03:56:53.310Z,1008.82
2017-10-02T03:57:53.305Z,1008.84
2017-10-02T03:58:53.300Z,1008.79
2017-10-02T03:59:53.295Z,1008.79
2017-10-02T04:00:53.292Z,1008.88
2017-10-02T04:01:53.290Z,1008.84
2017-10-02T04:02:53.285Z,1008.82
2017-10-02T04:03:53.283Z,1008.84
2017-10-02T04:04:53.279Z,1008.85
2017-10-02T04:05:53.277Z,1008.84
2017-10-02T04:06:53.277Z,1008.86
2017-10-02T04:07:53.273Z,1008.94
2017-10-02T04:08:53.271Z,1008.91
2017-10-02T04:09:53.267Z,1008.89
2017-10-02T04:10:53.262Z,1008.86
2017-10-02T04:11:53.260Z,1008.88
2017-10-02T04:12:53.255Z,1008.86
2017-10-02T04:13:53.253Z,1008.87
2017-10-02T04:14:53.245Z,1008.84
2017-10-02T04:15:53.244Z,1008.83
2017-10-02T04:16:53.238Z,1008.82
2017-10-02T04:17:53.236Z,1008.84
2017-10-02T04:18:53.232Z,1008.84
2017-10-02T04:19:53.231Z,1008.80
2017-10-02T04:20:53.227Z,1008.76
2017-10-02T04:21:53.223Z,1008.78
2017-10-02T04:22:53.224Z,1008.75
2017-10-02T04:23:53.221Z,1008.72
2017-10-02T04:24:53.217Z,1008.74
2017-10-02T04:25:53.215Z,1008.65
2017-10-02T04:26:53.212Z,1008.66
2017-10-02T04:27:53.207Z,1008.63
2017-10-02T04:28:53.204Z,1008.63
2017-10-02T04:29:53.200Z,1008.76
2017-10-02T04:30:53.194Z,1008.69
2017-10-02T04:31:53.191Z,1008.69
2017-10-02T04:32:53.187Z,1008.67
2017-10-02T04:33:53.184Z,1008.65
2017-10-02T04:34:53.182Z,1008.62
2017-10-02T04:35:53.178Z,1008.62
2017-10-02T04:36:53.173Z,1008.57
2017-10-02T04:37:53.170Z,1008.54
2017-10-02T04:38:53.172Z,1008.54
2017-10-02T04:39:53.169Z,1008.49
2017-10-02T04:40:53.164Z,1008.41
2017-10-02T04:41:53.164Z,1008.45
2017-10-02T04:42:53.159Z,1008.40
2017-10-02T04:43:53.157Z,1008.41
2017-10-02T04:44:53.153Z,1008.45
2017-10-02T04:45:53.151Z,1008.42
2017-10-02T04:46:53.142Z,1008.42
2017-10-02T04:47:53.139Z,1008.43
2017-10-02T04:48:53.136Z,1008.49
2017-10-02T04:49:53.133Z,1008.37
2017-10-02T04:50:53.129Z,1008.38
2017-10-02T04:51:53.129Z,1008.34
2017-10-02T04:52:53.123Z,1008.34
2017-10-02T04:53:53.121Z,1008.28
2017-10-02T04:54:53.121Z,1008.31
2017-10-02T04:55:53.119Z,1008.32
2017-10-02T04:56:53.116Z,1008.38
2017-10-02T04:57:53.117Z,1008.37
2017-10-02T04:58:53.105Z,1008.36
2017-10-02T04:59:53.103Z,1008.35
2017-10-02T05:00:53.098Z,1008.30
2017-10-02T05:01:53.096Z,1008.29
2017-10-02T05:02:53.098Z,1008.27
2017-10-02T05:03:53.095Z,1008.28
2017-10-02T05:04:53.091Z,1008.26
2017-10-02T05:05:53.088Z,1008.31
2017-10-02T05:06:53.086Z,1008.29
2017-10-02T05:07:53.082Z,1008.29
2017-10-02T05:08:53.080Z,1008.31
2017-10-02T05:09:53.076Z,1008.33
2017-10-02T05:10:53.069Z,1008.39
2017-10-02T05:11:53.066Z,1008.46
2017-10-02T05:12:53.067Z,1008.39
2017-10-02T05:13:53.061Z,1008.45
2017-10-02T05:14:53.058Z,1008.44
2017-10-02T05:15:53.056Z,1008.39
2017-10-02T05:16:53.050Z,1008.38
2017-10-02T05:17:53.048Z,1008.35
2017-10-02T05:18:53.049Z,1008.34
2017-10-02T05:19:53.046Z,1008.38
2017-10-02T05:20:53.043Z,1008.47
2017-10-02T05:21:53.041Z,1008.50
2017-10-02T05:22:53.040Z,1008.41
2017-10-02T05:23:53.036Z,1008.44
2017-10-02T05:24:53.032Z,1008.46
2017-10-02T05:25:53.030Z,1008.53
2017-10-02T05:26:53.025Z,1008.53
2017-10-02T05:27:53.021Z,1008.53
2017-10-02T05:28:53.017Z,1008.53
2017-10-02T05:29:53.015Z,1008.53
2017-10-02T05:30:53.012Z,1008.47
2017-10-02T05:31:53.010Z,1008.42
2017-10-02T05:32:53.012Z,1008.44
2017-10-02T05:33:53.004Z,1008.41
2017-10-02T05:34:53.007Z,1008.37
2017-10-02T05:35:53.002Z,1008.39
2017-10-02T05:36:52.998Z,1008.38
2017-10-02T05:37:52.997Z,1008.38
2017-10-02T05:38:52.994Z,1008.35
2017-10-02T05:39:52.991Z,1008.35
2017-10-02T05:40:52.990Z,1008.37
2017-10-02T05:41:52.986Z,1008.42
2017-10-02T05:42:52.977Z,1008.48
2017-10-02T05:43:52.977Z,1008.46
2017-10-02T05:44:52.975Z,1008.45
2017-10-02T05:45:52.971Z,1008.52
2017-10-02T05:46:52.968Z,1008.61
2017-10-02T05:47:52.973Z,1008.53
2017-10-02T05:48:52.962Z,1008.58
2017-10-02T05:49:52.961Z,1008.60
2017-10-02T05:50:52.962Z,1008.59
2017-10-02T05:51:52.960Z,1008.59
2017-10-02T05:52:52.956Z,1008.60
2017-10-02T05:53:52.957Z,1008.63
2017-10-02T05:54:52.950Z,1008.60
2017-10-02T05:55:52.949Z,1008.61
2017-10-02T05:56:52.953Z,1008.59
2017-10-02T05:57:52.943Z,1008.58
2017-10-02T05:58:52.942Z,1008.56
2017-10-02T05:59:52.934Z,1008.55
2017-10-02T06:00:52.933Z,1008.54
2017-10-02T06:01:52.929Z,1008.62
2017-10-02T06:02:52.933Z,1008.53
2017-10-02T06:03:52.929Z,1008.58
2017-10-02T06:04:52.925Z,1008.57
2017-10-02T06:05:52.922Z,1008.62
2017-10-02T06:06:52.917Z,1008.63
2017-10-02T06:07:52.915Z,1008.60
2017-10-02T06:08:52.910Z,1008.58
2017-10-02T06:09:52.911Z,1008.55
2017-10-02T06:10:52.907Z,1008.60
2017-10-02T06:11:52.903Z,1008.59
2017-10-02T06:12:52.906Z,1008.52
2017-10-02T06:13:52.898Z,1008.55
2017-10-02T06:14:52.900Z,1008.50
2017-10-02T06:15:52.899Z,1008.54
2017-10-02T06:16:52.895Z,1008.49
2017-10-02T06:17:52.897Z,1008.53
2017-10-02T06:18:52.890Z,1008.53
2017-10-02T06:19:52.891Z,1008.54
2017-10-02T06:20:52.886Z,1008.45
2017-10-02T06:21:52.883Z,1008.51
2017-10-02T06:22:52.877Z,1008.44
2017-10-02T06:23:52.875Z,1008.48
2017-10-02T06:24:52.874Z,1008.45
2017-10-02T06:25:52.871Z,1008.42
2017-10-02T06:26:52.867Z,1008.46
2017-10-02T06:27:52.865Z,1008.50
2017-10-02T06:28:52.863Z,1008.47
2017-10-02T06:29:52.860Z,1008.51
2017-10-02T06:30:52.862Z,1008.50
2017-10-02T06:31:52.860Z,1008.46
2017-10-02T06:32:52.858Z,1008.46
2017-10-02T06:33:52.856Z,1008.50
2017-10-02T06:34:52.853Z,1008.47
2017-10-02T06:35:52.849Z,1008.54
2017-10-02T06:36:52.847Z,1008.53
2017-10-02T06:37:52.847Z,1008.51
2017-10-02T06:38:52.839Z,1008.56
2017-10-02T06:39:52.835Z,1008.49
2017-10-02T06:40:52.834Z,1008.51
2017-10-02T06:41:52.832Z,1008.54
2017-10-02T06:42:52.829Z,1008.51
2017-10-02T06:43:52.827Z,1008.58
2017-10-02T06:44:52.824Z,1008.55
2017-10-02T06:45:52.822Z,1008.59
2017-10-02T06:46:52.823Z,1008.56
2017-10-02T06:47:52.821Z,1008.59
2017-10-02T06:48:52.819Z,1008.62
2017-10-02T06:49:52.815Z,1008.58
2017-10-02T06:50:52.820Z,1008.59
2017-10-02T06:51:52.812Z,1008.60
2017-10-02T06:52:52.809Z,1008.60
2017-10-02T06:53:52.807Z,1008.55
2017-10-02T06:54:52.801Z,1008.49
2017-10-02T06:55:52.800Z,1008.51
2017-10-02T06:56:52.794Z,1008.44
2017-10-02T06:57:52.795Z,1008.49
2017-10-02T06:58:52.795Z,1008.48
2017-10-02T06:59:52.790Z,1008.44
2017-10-02T07:00:52.787Z,1008.43
2017-10-02T07:01:52.785Z,1008.44
2017-10-02T07:02:52.786Z,1008.42
2017-10-02T07:03:52.786Z,1008.39
2017-10-02T07:04:52.782Z,1008.38
2017-10-02T07:05:52.779Z,1008.42
2017-10-02T07:06:52.773Z,1008.48
2017-10-02T07:07:52.775Z,1008.46
2017-10-02T07:08:52.773Z,1008.45
2017-10-02T07:09:52.765Z,1008.41
2017-10-02T07:10:52.768Z,1008.42
2017-10-02T07:11:52.767Z,1008.41
2017-10-02T07:12:52.762Z,1008.43
2017-10-02T07:13:52.761Z,1008.42
2017-10-02T07:14:52.760Z,1008.36
2017-10-02T07:15:52.757Z,1008.39
2017-10-02T07:16:52.755Z,1008.38
2017-10-02T07:17:52.753Z,1008.36
2017-10-02T07:18:52.750Z,1008.36
2017-10-02T07:19:52.743Z,1008.33
2017-10-02T07:20:52.742Z,1008.29
2017-10-02T07:21:52.741Z,1008.31
2017-10-02T07:22:52.739Z,1008.29
2017-10-02T07:23:52.737Z,1008.36
2017-10-02T07:24:52.733Z,1008.38
2017-10-02T07:25:52.734Z,1008.39
2017-10-02T07:26:52.735Z,1008.44
2017-10-02T07:27:52.732Z,1008.42
2017-10-02T07:28:52.730Z,1008.53
2017-10-02T07:29:52.729Z,1008.52
2017-10-02T07:30:52.726Z,1008.54
2017-10-02T07:31:52.725Z,1008.52
2017-10-02T07:32:52.726Z,1008.56
2017-10-02T07:33:52.722Z,1008.56
2017-10-02T07:34:52.715Z,1008.56
2017-10-02T07:35:52.730Z,1008.56
2017-10-02T07:36:52.712Z,1008.58
2017-10-02T07:37:52.709Z,1008.57
2017-10-02T07:38:52.708Z,1008.58
2017-10-02T07:39:52.707Z,1008.53
2017-10-02T07:40:52.704Z,1008.50
2017-10-02T07:41:52.702Z,1008.53
2017-10-02T07:42:52.706Z,1008.48
2017-10-02T07:43:52.704Z,1008.49
2017-10-02T07:44:52.703Z,1008.50
2017-10-02T07:45:52.701Z,1008.52
2017-10-02T07:46:52.702Z,1008.51
2017-10-02T07:47:52.699Z,1008.57
2017-10-02T07:48:52.696Z,1008.53
2017-10-02T07:49:52.696Z,1008.53
2017-10-02T07:50:52.690Z,1008.53
2017-10-02T07:51:52.688Z,1008.58
2017-10-02T07:52:52.686Z,1008.57
2017-10-02T07:53:52.684Z,1008.50
2017-10-02T07:54:52.684Z,1008.54
2017-10-02T07:55:52.681Z,1008.58
2017-10-02T07:56:52.681Z,1008.54
2017-10-02T07:57:52.679Z,1008.62
2017-10-02T07:58:52.681Z,1008.64
2017-10-02T07:59:52.681Z,1008.61
2017-10-02T08:00:52.697Z,1008.62
2017-10-02T08:01:52.678Z,1008.64
2017-10-02T08:02:52.679Z,1008.65
2017-10-02T08:03:52.676Z,1008.63
2017-10-02T08:04:52.673Z,1008.64
2017-10-02T08:05:52.672Z,1008.66
2017-10-02T08:06:52.668Z,1008.67
2017-10-02T08:07:52.666Z,1008.66
2017-10-02T08:08:52.664Z,1008.64
2017-10-02T08:09:52.664Z,1008.64
2017-10-02T08:10:52.665Z,1008.59
2017-10-02T08:11:52.665Z,1008.61
2017-10-02T08:12:52.662Z,1008.66
2017-10-02T08:13:52.662Z,1008.70
2017-10-02T08:14:52.657Z,1008.67
2017-10-02T08:15:52.655Z,1008.66
2017-10-02T08:16:52.653Z,1008.66
2017-10-02T08:17:52.653Z,1008.75
2017-10-02T08:18:52.657Z,1008.82
2017-10-02T08:19:52.648Z,1008.82
2017-10-02T08:20:52.648Z,1008.78
2017-10-02T08:21:52.647Z,1008.76
2017-10-02T08:22:52.651Z,1008.75
2017-10-02T08:23:52.647Z,1008.77
2017-10-02T08:24:52.646Z,1008.76
2017-10-02T08:25:52.646Z,1008.78
2017-10-02T08:26:52.644Z,1008.79
2017-10-02T08:27:52.643Z,1008.79
2017-10-02T08:28:52.640Z,1008.77
2017-10-02T08:29:52.638Z,1008.77
2017-10-02T08:30:52.634Z,1008.79
2017-10-02T08:31:52.634Z,1008.77
2017-10-02T08:32:52.633Z,1008.75
2017-10-02T08:33:52.629Z,1008.76
2017-10-02T08:34:52.630Z,1008.80
2017-10-02T08:35:52.629Z,1008.81
2017-10-02T08:36:52.625Z,1008.78
2017-10-02T08:37:52.627Z,1008.75
2017-10-02T08:38:52.630Z,1008.77
2017-10-02T08:39:52.627Z,1008.76
2017-10-02T08:40:52.627Z,1008.75
2017-10-02T08:41:52.625Z,1008.78
2017-10-02T08:42:52.632Z,1008.81
2017-10-02T08:43:52.628Z,1008.79
2017-10-02T08:44:52.625Z,1008.81
2017-10-02T08:45:52.620Z,1008.76
2017-10-02T08:46:52.629Z,1008.77
2017-10-02T08:47:52.616Z,1008.85
2017-10-02T08:48:52.617Z,1008.77
2017-10-02T08:49:52.610Z,1008.84
2017-10-02T08:50:52.611Z,1008.85
2017-10-02T08:51:52.612Z,1008.84
2017-10-02T08:52:52.607Z,1008.86
2017-10-02T08:53:52.609Z,1008.83
2017-10-02T08:54:52.610Z,1008.83
2017-10-02T08:55:52.610Z,1008.88
2017-10-02T08:56:52.609Z,1008.84
2017-10-02T08:57:52.625Z,1008.86
2017-10-02T08:58:52.607Z,1008.74
2017-10-02T08:59:52.605Z,1008.76
2017-10-02T09:00:52.605Z,1008.75
2017-10-02T09:01:52.604Z,1008.80
2017-10-02T09:02:52.601Z,1008.78
2017-10-02T09:03:52.599Z,1008.82
2017-10-02T09:04:52.598Z,1008.88
2017-10-02T09:05:52.598Z,1008.91
2017-10-02T09:06:52.597Z,1008.92
2017-10-02T09:07:52.595Z,1008.88
2017-10-02T09:08:52.593Z,1008.91
2017-10-02T09:09:52.593Z,1008.94
2017-10-02T09:10:52.602Z,1008.90
2017-10-02T09:11:52.597Z,1008.95
2017-10-02T09:12:52.594Z,1008.91
2017-10-02T09:13:52.595Z,1009.03
2017-10-02T09:14:52.590Z,1008.95
2017-10-02T09:15:52.590Z,1008.94
2017-10-02T09:16:52.587Z,1008.91
2017-10-02T09:17:52.587Z,1008.88
2017-10-02T09:18:52.593Z,1008.87
2017-10-02T09:19:52.591Z,1008.89
2017-10-02T09:20:52.589Z,1008.86
2017-10-02T09:21:52.588Z,1008.86
2017-10-02T09:22:52.589Z,1008.90
2017-10-02T09:23:52.588Z,1008.92
2017-10-02T09:24:52.588Z,1008.94
2017-10-02T09:25:52.588Z,1009.03
2017-10-02T09:26:52.583Z,1009.03
2017-10-02T09:27:52.583Z,1009.04
2017-10-02T09:28:52.581Z,1009.05
2017-10-02T09:29:52.581Z,1009.10
2017-10-02T09:30:52.580Z,1009.09
2017-10-02T09:31:52.582Z,1009.09
2017-10-02T09:32:52.586Z,1009.08
2017-10-02T09:33:52.579Z,1009.07
2017-10-02T09:34:52.584Z,1009.04
2017-10-02T09:35:52.583Z,1009.07
2017-10-02T09:36:52.580Z,1009.12
2017-10-02T09:37:52.582Z,1009.06
2017-10-02T09:38:52.582Z,1009.10
2017-10-02T09:39:52.581Z,1009.13
2017-10-02T09:40:52.579Z,1009.13
2017-10-02T09:41:52.580Z,1009.14
2017-10-02T09:42:52.574Z,1009.18
2017-10-02T09:43:52.580Z,1009.28
2017-10-02T09:44:52.576Z,1009.21
2017-10-02T09:45:52.575Z,1009.21
2017-10-02T09:46:52.577Z,1009.19
2017-10-02T09:47:52.578Z,1009.22
2017-10-02T09:48:52.578Z,1009.26
2017-10-02T09:49:52.578Z,1009.29
2017-10-02T09:50:52.584Z,1009.19
2017-10-02T09:51:52.585Z,1009.14
2017-10-02T09:52:52.590Z,1009.09
2017-10-02T09:53:52.588Z,1008.99
2017-10-02T09:54:52.590Z,1008.95
2017-10-02T09:55:52.593Z,1008.84
2017-10-02T09:56:52.593Z,1008.73
2017-10-02T09:57:52.597Z,1008.74
2017-10-02T09:58:52.595Z,1008.71
2017-10-02T09:59:52.598Z,1008.62
2017-10-02T10:00:52.601Z,1008.60
2017-10-02T10:01:52.603Z,1008.55
2017-10-02T10:02:52.607Z,1008.50
2017-10-02T10:03:52.611Z,1008.43
2017-10-02T10:04:52.612Z,1008.35
2017-10-02T10:05:52.615Z,1008.25
2017-10-02T10:06:52.622Z,1008.22
2017-10-02T10:07:52.625Z,1008.23
2017-10-02T10:08:52.627Z,1008.28
2017-10-02T10:09:52.630Z,1008.34
2017-10-02T10:10:52.633Z,1008.46
2017-10-02T10:11:52.635Z,1008.50
2017-10-02T10:12:52.638Z,1008.46
2017-10-02T10:13:52.638Z,1008.55
2017-10-02T10:14:52.639Z,1008.47
2017-10-02T10:15:52.642Z,1008.53
2017-10-02T10:16:52.642Z,1008.57
2017-10-02T10:17:52.645Z,1008.49
2017-10-02T10:18:52.654Z,1008.53
2017-10-02T10:19:52.656Z,1008.61
2017-10-02T10:20:52.657Z,1008.61
2017-10-02T10:21:52.661Z,1008.56
2017-10-02T10:22:52.661Z,1008.54
2017-10-02T10:23:52.663Z,1008.54
2017-10-02T10:24:52.665Z,1008.51
2017-10-02T10:25:52.666Z,1008.63
2017-10-02T10:26:52.670Z,1008.67
2017-10-02T10:27:52.672Z,1008.68
2017-10-02T10:28:52.674Z,1008.70
2017-10-02T10:29:52.679Z,1008.63
2017-10-02T10:30:52.684Z,1008.62
2017-10-02T10:31:52.693Z,1008.63
2017-10-02T10:32:52.686Z,1008.71
2017-10-02T10:33:52.689Z,1008.69
2017-10-02T10:34:52.693Z,1008.78
2017-10-02T10:35:52.695Z,1008.81
2017-10-02T10:36:52.697Z,1008.76
2017-10-02T10:37:52.699Z,1008.93
2017-10-02T10:38:52.695Z,1008.92
2017-10-02T10:39:52.700Z,1008.88
2017-10-02T10:40:52.699Z,1008.85
2017-10-02T10:41:52.702Z,1008.85
2017-10-02T10:42:52.704Z,1008.79
2017-10-02T10:43:52.707Z,1008.93
2017-10-02T10:44:52.709Z,1009.00
2017-10-02T10:45:52.710Z,1008.96
2017-10-02T10:46:52.718Z,1008.90
2017-10-02T10:47:52.717Z,1008.88
2017-10-02T10:48:52.718Z,1008.89
2017-10-02T10:49:52.722Z,1008.96
2017-10-02T10:50:52.723Z,1009.01
2017-10-02T10:51:52.727Z,1008.96
2017-10-02T10:52:52.728Z,1008.89
2017-10-02T10:53:52.735Z,1008.87
2017-10-02T10:54:52.729Z,1008.98
2017-10-02T10:55:52.735Z,1008.93
2017-10-02T10:56:52.732Z,1008.90
2017-10-02T10:57:52.735Z,1008.86
2017-10-02T10:58:52.737Z,1008.87
2017-10-02T10:59:52.739Z,1008.91
2017-10-02T11:00:52.742Z,1009.00
2017-10-02T11:01:52.744Z,1008.94
2017-10-02T11:02:52.758Z,1008.89
2017-10-02T11:03:52.757Z,1008.93
2017-10-02T11:04:52.757Z,1008.94
2017-10-02T11:05:52.761Z,1008.95
2017-10-02T11:06:52.768Z,1009.00
2017-10-02T11:07:52.767Z,1009.14
2017-10-02T11:08:52.769Z,1009.07
2017-10-02T11:09:52.777Z,1009.03
2017-10-02T11:10:52.770Z,1009.05
2017-10-02T11:11:52.781Z,1008.98
2017-10-02T11:12:52.776Z,1009.02
2017-10-02T11:13:52.777Z,1009.06
2017-10-02T11:14:52.781Z,1008.97
2017-10-02T11:15:52.785Z,1008.99
2017-10-02T11:16:52.785Z,1009.02
2017-10-02T11:17:52.789Z,1009.05
2017-10-02T11:18:52.797Z,1008.99
2017-10-02T11:19:52.798Z,1009.05
2017-10-02T11:20:52.800Z,1009.07
2017-10-02T11:21:52.804Z,1009.14
2017-10-02T11:22:52.804Z,1008.99
2017-10-02T11:23:52.822Z,1009.03
2017-10-02T11:24:52.805Z,1009.03
2017-10-02T11:25:52.810Z,1009.01
2017-10-02T11:26:52.816Z,1008.99
2017-10-02T11:27:52.818Z,1008.93
2017-10-02T11:28:52.820Z,1008.98
2017-10-02T11:29:52.823Z,1008.94
2017-10-02T11:30:52.830Z,1008.89
2017-10-02T11:31:52.829Z,1008.93
2017-10-02T11:32:52.833Z,1008.90
2017-10-02T11:33:52.834Z,1008.93
2017-10-02T11:34:52.835Z,1008.85
2017-10-02T11:35:52.837Z,1008.87
2017-10-02T11:36:52.840Z,1008.92
2017-10-02T11:37:52.841Z,1008.89
2017-10-02T11:38:52.845Z,1008.87
2017-10-02T11:39:52.848Z,1008.92
2017-10-02T11:40:52.848Z,1008.85
2017-10-02T11:41:52.852Z,1008.89
2017-10-02T11:42:52.859Z,1008.93
2017-10-02T11:43:52.862Z,1008.93
2017-10-02T11:44:52.863Z,1008.90
2017-10-02T11:45:52.867Z,1008.86
2017-10-02T11:46:52.869Z,1008.86
2017-10-02T11:47:52.872Z,1008.88
2017-10-02T11:48:52.874Z,1008.93
2017-10-02T11:49:52.874Z,1008.86
2017-10-02T11:50:52.874Z,1008.82
2017-10-02T11:51:52.876Z,1008.76
2017-10-02T11:52:52.879Z,1008.76
2017-10-02T11:53:52.880Z,1008.75
2017-10-02T11:54:52.884Z,1008.65
2017-10-02T11:55:52.887Z,1008.70
2017-10-02T11:56:52.889Z,1008.72
2017-10-02T11:57:52.890Z,1008.73
2017-10-02T11:58:52.899Z,1008.73
2017-10-02T11:59:52.902Z,1008.73
2017-10-02T12:00:52.903Z,1008.72
2017-10-02T12:01:52.905Z,1008.71
2017-10-02T12:02:52.909Z,1008.73
2017-10-02T12:03:52.912Z,1008.75
2017-10-02T12:04:52.912Z,1008.83
2017-10-02T12:05:52.919Z,1008.74